createdAt,value
2018-01-22T00:01:26.871Z,36.47
2018-01-22T00:03:54.558Z,43.97
2018-01-22T00:06:22.324Z,43.50
2018-01-22T00:08:50.255Z,49.60
2018-01-22T00:11:18.520Z,44.63
2018-01-22T00:13:46.007Z,40.97
2018-01-22T00:16:13.688Z,46.60
2018-01-22T00:18:41.190Z,46.77
2018-01-22T00:21:09.401Z,48.10
2018-01-22T00:23:36.918Z,51.97
2018-01-22T00:26:04.415Z,44.70
2018-01-22T00:28:31.906Z,53.07
2018-01-22T00:31:00.958Z,53.67
2018-01-22T00:33:28.925Z,54.73
2018-01-22T00:35:56.428Z,44.40
2018-01-22T00:38:24.355Z,50.10
2018-01-22T00:40:51.955Z,49.07
2018-01-22T00:43:20.958Z,48.13
2018-01-22T00:45:48.483Z,48.50
2018-01-22T00:48:15.979Z,45.87
2018-01-22T00:50:44.261Z,40.70
2018-01-22T00:53:11.992Z,42.93
2018-01-22T00:55:39.520Z,49.60
2018-01-22T00:58:07.160Z,53.30
2018-01-22T01:00:34.792Z,45.20
2018-01-22T01:03:02.308Z,50.07
2018-01-22T01:05:29.888Z,50.07
2018-01-22T01:07:57.834Z,46.73
2018-01-22T01:10:25.644Z,49.37
2018-01-22T01:12:53.329Z,46.70
2018-01-22T01:15:21.631Z,55.07
2018-01-22T01:17:49.141Z,49.40
2018-01-22T01:20:16.679Z,58.13
2018-01-22T01:22:44.226Z,53.27
2018-01-22T01:25:11.727Z,55.93
2018-01-22T01:27:39.234Z,61.53
2018-01-22T01:30:07.084Z,59.27
2018-01-22T01:32:34.672Z,55.53
2018-01-22T01:35:02.200Z,65.23
2018-01-22T01:37:29.699Z,58.97
2018-01-22T01:39:57.191Z,58.93
2018-01-22T01:42:24.715Z,60.20
2018-01-22T01:44:52.234Z,58.17
2018-01-22T01:47:19.751Z,65.97
2018-01-22T01:49:47.656Z,48.80
2018-01-22T01:52:16.160Z,58.13
2018-01-22T01:54:43.669Z,52.47
2018-01-22T01:57:11.389Z,59.97
2018-01-22T01:59:38.885Z,61.17
2018-01-22T02:02:06.387Z,56.53
2018-01-22T02:04:34.028Z,53.87
2018-01-22T02:07:01.831Z,65.23
2018-01-22T02:09:29.343Z,59.60
2018-01-22T02:11:56.864Z,57.23
2018-01-22T02:14:24.386Z,59.57
2018-01-22T02:16:51.915Z,59.03
2018-01-22T02:19:19.590Z,66.93
2018-01-22T02:21:47.191Z,57.37
2018-01-22T02:24:14.694Z,62.20
2018-01-22T02:26:42.203Z,62.70
2018-01-22T02:29:09.707Z,54.53
2018-01-22T02:31:38.237Z,62.43
2018-01-22T02:34:06.172Z,63.80
2018-01-22T02:36:33.730Z,65.00
2018-01-22T02:39:01.939Z,63.47
2018-01-22T02:41:29.462Z,56.33
2018-01-22T02:43:56.968Z,58.77
2018-01-22T02:46:24.478Z,75.13
2018-01-22T02:48:51.985Z,61.77
2018-01-22T02:51:19.604Z,64.73
2018-01-22T02:53:47.125Z,63.70
2018-01-22T02:56:14.627Z,74.37
2018-01-22T02:58:42.125Z,63.73
2018-01-22T03:01:09.987Z,67.27
2018-01-22T03:03:37.579Z,62.93
2018-01-22T03:06:05.133Z,64.00
2018-01-22T03:08:32.654Z,62.23
2018-01-22T03:11:00.175Z,58.77
2018-01-22T03:13:27.681Z,62.27
2018-01-22T03:15:55.199Z,67.40
2018-01-22T03:18:22.706Z,67.50
2018-01-22T03:20:50.251Z,63.80
2018-01-22T03:23:17.761Z,54.47
2018-01-22T03:25:45.903Z,53.23
2018-01-22T03:28:13.407Z,53.60
2018-01-22T03:30:40.919Z,58.63
2018-01-22T03:33:08.422Z,60.10
2018-01-22T03:35:35.951Z,47.30
2018-01-22T03:38:03.509Z,47.90
2018-01-22T03:40:31.316Z,55.20
2018-01-22T03:42:58.828Z,52.03
2018-01-22T03:45:26.334Z,52.60
2018-01-22T03:47:53.840Z,49.70
2018-01-22T03:50:22.261Z,50.00
2018-01-22T03:52:49.787Z,52.20
2018-01-22T03:55:17.456Z,50.73
2018-01-22T03:57:45.047Z,48.27
2018-01-22T04:00:12.815Z,62.07
2018-01-22T04:02:40.319Z,53.17
2018-01-22T04:05:08.031Z,53.30
2018-01-22T04:07:35.543Z,51.30
2018-01-22T04:10:03.258Z,53.40
2018-01-22T04:12:30.880Z,53.97
2018-01-22T04:14:58.471Z,54.17
2018-01-22T04:17:26.016Z,59.47
2018-01-22T04:19:53.645Z,57.37
2018-01-22T04:22:21.875Z,50.07
2018-01-22T04:24:49.482Z,56.17
2018-01-22T04:27:16.994Z,56.80
2018-01-22T04:29:44.505Z,51.90
2018-01-22T04:32:12.209Z,51.10
2018-01-22T04:34:39.703Z,50.03
2018-01-22T04:37:07.220Z,55.83
2018-01-22T04:39:34.849Z,58.47
2018-01-22T04:42:02.355Z,54.87
2018-01-22T04:44:29.892Z,57.50
2018-01-22T04:46:57.509Z,55.27
2018-01-22T04:49:25.021Z,49.73
2018-01-22T04:51:54.027Z,61.17
2018-01-22T04:54:22.371Z,47.40
2018-01-22T04:56:49.884Z,50.33
2018-01-22T04:59:17.451Z,67.77
2018-01-22T05:01:45.190Z,51.43
2018-01-22T05:04:13.471Z,63.57
2018-01-22T05:06:41.194Z,53.00
2018-01-22T05:09:08.703Z,56.50
2018-01-22T05:11:36.412Z,51.87
2018-01-22T05:14:03.923Z,60.53
2018-01-22T05:16:31.427Z,57.37
2018-01-22T05:18:58.942Z,62.80
2018-01-22T05:21:26.519Z,59.33
2018-01-22T05:23:54.133Z,56.97
2018-01-22T05:26:21.638Z,59.33
2018-01-22T05:28:49.178Z,66.13
2018-01-22T05:31:17.038Z,65.23
2018-01-22T05:33:44.487Z,56.40
2018-01-22T05:36:12.003Z,55.80
2018-01-22T05:38:39.519Z,62.63
2018-01-22T05:41:07.775Z,55.13
2018-01-22T05:43:35.396Z,62.17
2018-01-22T05:46:02.922Z,56.30
2018-01-22T05:48:30.428Z,64.10
2018-01-22T05:50:59.467Z,55.33
2018-01-22T05:53:27.170Z,61.47
2018-01-22T05:55:54.693Z,64.87
2018-01-22T05:58:22.179Z,66.10
2018-01-22T06:00:49.701Z,57.20
2018-01-22T06:03:17.299Z,57.80
2018-01-22T06:05:44.819Z,59.53
2018-01-22T06:08:12.330Z,52.50
2018-01-22T06:10:39.939Z,64.00
2018-01-22T06:13:07.455Z,61.10
2018-01-22T06:15:34.982Z,64.50
2018-01-22T06:18:02.486Z,68.83
2018-01-22T06:20:30.764Z,68.17
2018-01-22T06:22:58.286Z,53.73
2018-01-22T06:25:25.788Z,63.97
2018-01-22T06:27:53.404Z,53.10
2018-01-22T06:30:21.171Z,49.53
2018-01-22T06:32:48.713Z,61.17
2018-01-22T06:35:16.218Z,57.13
2018-01-22T06:37:44.766Z,56.90
2018-01-22T06:40:12.279Z,63.53
2018-01-22T06:42:39.961Z,57.97
2018-01-22T06:45:07.464Z,63.73
2018-01-22T06:47:34.996Z,68.40
2018-01-22T06:50:02.630Z,59.27
2018-01-22T06:52:30.147Z,50.73
2018-01-22T06:54:57.647Z,55.53
2018-01-22T06:57:25.188Z,54.53
2018-01-22T06:59:53.030Z,54.37
2018-01-22T07:02:20.571Z,59.27
2018-01-22T07:04:48.350Z,54.67
2018-01-22T07:07:15.850Z,90.70
2018-01-22T07:09:43.351Z,57.43
2018-01-22T07:12:11.837Z,61.00
2018-01-22T07:14:39.364Z,64.77
2018-01-22T07:17:06.854Z,66.43
2018-01-22T07:19:34.605Z,48.70
2018-01-22T07:22:02.126Z,51.27
2018-01-22T07:24:29.786Z,52.13
2018-01-22T07:26:57.278Z,49.67
2018-01-22T07:29:25.032Z,52.53
2018-01-22T07:31:52.535Z,56.93
2018-01-22T07:34:20.276Z,57.30
2018-01-22T07:36:48.027Z,54.90
2018-01-22T07:39:15.551Z,60.00
2018-01-22T07:41:43.233Z,56.87
2018-01-22T07:44:10.745Z,53.43
2018-01-22T07:46:38.447Z,59.47
2018-01-22T07:49:06.223Z,61.13
2018-01-22T07:51:33.741Z,65.23
2018-01-22T07:54:01.250Z,65.70
2018-01-22T07:56:28.754Z,64.40
2018-01-22T07:58:56.334Z,65.43
2018-01-22T08:01:23.937Z,66.63
2018-01-22T08:03:51.572Z,63.00
2018-01-22T08:06:19.331Z,60.33
2018-01-22T08:08:46.834Z,67.13
2018-01-22T08:11:14.959Z,69.77
2018-01-22T08:13:42.474Z,56.53
2018-01-22T08:16:10.746Z,63.43
2018-01-22T08:18:38.427Z,62.13
2018-01-22T08:21:06.271Z,59.97
2018-01-22T08:23:33.982Z,60.03
2018-01-22T08:26:01.491Z,55.17
2018-01-22T08:28:29.014Z,58.47
2018-01-22T08:30:56.520Z,59.67
2018-01-22T08:33:24.079Z,63.37
2018-01-22T08:35:51.590Z,61.97
2018-01-22T08:38:19.090Z,54.70
2018-01-22T08:40:46.666Z,63.97
2018-01-22T08:43:14.266Z,56.00
2018-01-22T08:45:41.785Z,61.93
2018-01-22T08:48:09.466Z,62.33
2018-01-22T08:50:37.230Z,56.40
2018-01-22T08:53:04.972Z,60.17
2018-01-22T08:55:32.696Z,63.80
2018-01-22T08:58:00.964Z,57.77
2018-01-22T09:00:28.486Z,59.93
2018-01-22T09:02:55.991Z,51.07
2018-01-22T09:05:23.824Z,53.80
2018-01-22T09:07:51.323Z,45.87
2018-01-22T09:10:19.018Z,64.13
2018-01-22T09:12:46.520Z,55.87
2018-01-22T09:15:14.256Z,63.20
2018-01-22T09:17:41.767Z,55.63
2018-01-22T09:20:09.881Z,54.00
2018-01-22T09:22:37.552Z,56.10
2018-01-22T09:25:05.046Z,67.43
2018-01-22T09:27:32.678Z,50.83
2018-01-22T09:30:00.180Z,57.83
2018-01-22T09:32:27.694Z,59.00
2018-01-22T09:34:55.199Z,61.43
2018-01-22T09:37:22.873Z,54.73
2018-01-22T09:39:51.310Z,53.83
2018-01-22T09:42:18.871Z,49.00
2018-01-22T09:44:47.417Z,50.17
2018-01-22T09:47:14.931Z,53.67
2018-01-22T09:49:42.645Z,57.10
2018-01-22T09:52:10.172Z,53.97
2018-01-22T09:54:37.679Z,56.13
2018-01-22T09:57:05.322Z,59.93
2018-01-22T09:59:33.080Z,50.03
2018-01-22T10:02:00.587Z,48.10
2018-01-22T10:04:28.303Z,58.83
2018-01-22T10:06:55.807Z,70.13
2018-01-22T10:09:23.524Z,47.80
2018-01-22T10:11:51.020Z,47.17
2018-01-22T10:14:18.739Z,53.00
2018-01-22T10:16:46.249Z,50.70
2018-01-22T10:19:13.963Z,52.53
2018-01-22T10:21:41.462Z,49.90
2018-01-22T10:24:09.089Z,53.87
2018-01-22T10:26:36.665Z,53.80
2018-01-22T10:29:04.946Z,56.23
2018-01-22T10:31:32.489Z,54.57
2018-01-22T10:34:00.110Z,50.33
2018-01-22T10:36:27.603Z,54.93
2018-01-22T10:38:55.143Z,50.30
2018-01-22T10:41:22.649Z,50.03
2018-01-22T10:43:50.378Z,52.90
2018-01-22T10:46:17.872Z,63.70
2018-01-22T10:48:45.595Z,48.63
2018-01-22T10:51:13.102Z,55.37
2018-01-22T10:53:40.836Z,69.50
2018-01-22T10:56:08.574Z,63.87
2018-01-22T10:58:36.207Z,49.97
2018-01-22T11:01:03.856Z,57.83
2018-01-22T11:03:31.363Z,58.37
2018-01-22T11:05:58.986Z,55.80
2018-01-22T11:08:26.953Z,47.77
2018-01-22T11:10:54.553Z,53.70
2018-01-22T11:13:22.176Z,51.87
2018-01-22T11:18:47.930Z,47.47
2018-01-22T11:21:15.449Z,52.40
2018-01-22T11:23:42.956Z,48.60
2018-01-22T11:26:10.461Z,55.50
2018-01-22T11:28:37.967Z,52.33
2018-01-22T11:31:05.473Z,46.50
2018-01-22T11:33:33.300Z,46.90
2018-01-22T11:36:00.796Z,53.93
2018-01-22T11:38:28.292Z,47.83
2018-01-22T11:40:55.803Z,46.70
2018-01-22T11:43:24.110Z,50.43
2018-01-22T11:45:51.799Z,50.03
2018-01-22T11:48:19.351Z,52.00
2018-01-22T11:50:46.851Z,52.87
2018-01-22T11:53:15.137Z,48.60
2018-01-22T11:55:42.639Z,47.53
2018-01-22T11:58:10.299Z,41.87
2018-01-22T12:00:37.803Z,49.63
2018-01-22T12:03:05.320Z,45.90
2018-01-22T12:05:32.817Z,49.33
2018-01-22T12:08:01.093Z,51.27
2018-01-22T12:10:28.823Z,53.57
2018-01-22T12:12:56.614Z,53.73
2018-01-22T12:15:24.123Z,47.73
2018-01-22T12:17:51.808Z,50.37
2018-01-22T12:20:19.572Z,51.13
2018-01-22T12:22:47.079Z,44.47
2018-01-22T12:25:14.772Z,41.90
2018-01-22T12:27:42.270Z,54.47
2018-01-22T12:30:10.609Z,48.10
2018-01-22T12:32:38.407Z,45.63
2018-01-22T12:35:06.129Z,42.73
2018-01-22T12:37:33.626Z,44.87
2018-01-22T12:40:01.385Z,49.73
2018-01-22T12:42:28.895Z,49.00
2018-01-22T12:44:56.407Z,46.43
2018-01-22T12:47:24.047Z,42.93
2018-01-22T12:49:51.807Z,46.10
2018-01-22T12:52:19.751Z,44.57
2018-01-22T12:54:47.250Z,49.07
2018-01-22T12:57:15.101Z,49.90
2018-01-22T12:59:42.620Z,43.87
2018-01-22T13:02:10.140Z,45.67
2018-01-22T13:04:37.652Z,42.97
2018-01-22T13:07:05.229Z,43.10
2018-01-22T13:09:33.003Z,44.10
2018-01-22T13:12:00.762Z,37.80
2018-01-22T13:14:28.527Z,40.13
2018-01-22T13:16:56.028Z,36.43
2018-01-22T13:19:23.720Z,38.63
2018-01-22T13:21:51.227Z,42.17
2018-01-22T13:24:18.742Z,46.60
2018-01-22T13:26:46.425Z,40.80
2018-01-22T13:29:13.935Z,39.13
2018-01-22T13:31:41.435Z,34.80
2018-01-22T13:34:09.104Z,38.23
2018-01-22T13:36:36.608Z,42.37
2018-01-22T13:39:04.124Z,39.47
2018-01-22T13:41:31.799Z,37.00
2018-01-22T13:43:59.295Z,42.70
2018-01-22T13:46:26.804Z,44.60
2018-01-22T13:48:54.339Z,40.77
2018-01-22T13:51:21.881Z,34.43
2018-01-22T13:53:49.383Z,36.63
2018-01-22T13:56:17.739Z,39.60
2018-01-22T13:58:45.247Z,40.03
2018-01-22T14:01:12.767Z,33.37
2018-01-22T14:03:40.412Z,36.30
2018-01-22T14:06:08.183Z,37.70
2018-01-22T14:08:35.680Z,37.80
2018-01-22T14:11:03.376Z,34.90
2018-01-22T14:13:30.870Z,35.77
2018-01-22T14:15:58.395Z,38.20
2018-01-22T14:18:26.015Z,35.93
2018-01-22T14:20:53.519Z,38.30
2018-01-22T14:23:21.017Z,32.73
2018-01-22T14:25:48.762Z,40.70
2018-01-22T14:28:16.813Z,36.43
2018-01-22T14:30:44.717Z,42.27
2018-01-22T14:33:12.313Z,39.47
2018-01-22T14:35:39.815Z,34.60
2018-01-22T14:38:07.316Z,39.83
2018-01-22T14:40:34.926Z,35.97
2018-01-22T14:43:02.423Z,40.77
2018-01-22T14:45:29.934Z,37.33
2018-01-22T14:47:57.472Z,35.90
2018-01-22T14:50:25.129Z,37.27
2018-01-22T14:52:52.631Z,33.50
2018-01-22T14:55:20.254Z,33.43
2018-01-22T14:57:47.835Z,30.33
2018-01-22T15:00:15.352Z,39.93
2018-01-22T15:02:42.967Z,39.37
2018-01-22T15:05:10.525Z,36.00
2018-01-22T15:07:38.291Z,41.90
2018-01-22T15:10:06.438Z,49.57
2018-01-22T15:12:34.111Z,41.47
2018-01-22T15:15:01.615Z,38.60
2018-01-22T15:17:29.138Z,33.93
2018-01-22T15:19:56.665Z,38.73
2018-01-22T15:22:24.238Z,31.00
2018-01-22T15:24:51.867Z,34.53
2018-01-22T15:27:19.389Z,39.70
2018-01-22T15:29:46.904Z,38.80
2018-01-22T15:32:14.412Z,35.10
2018-01-22T15:34:42.321Z,33.53
2018-01-22T15:37:09.874Z,36.10
2018-01-22T15:39:37.686Z,34.67
2018-01-22T15:42:05.203Z,33.13
2018-01-22T15:44:32.719Z,32.97
2018-01-22T15:47:00.988Z,31.60
2018-01-22T15:49:28.517Z,34.87
2018-01-22T15:51:56.103Z,40.17
2018-01-22T15:54:24.590Z,36.60
2018-01-22T15:56:52.102Z,39.27
2018-01-22T15:59:19.804Z,30.73
2018-01-22T16:01:48.806Z,34.07
2018-01-22T16:04:16.415Z,34.03
2018-01-22T16:06:43.926Z,32.83
2018-01-22T16:09:11.465Z,34.13
2018-01-22T16:11:39.700Z,34.47
2018-01-22T16:14:07.203Z,32.40
2018-01-22T16:16:34.713Z,33.27
2018-01-22T16:19:02.458Z,38.33
2018-01-22T16:21:30.266Z,36.27
2018-01-22T16:23:57.756Z,38.70
2018-01-22T16:26:26.165Z,34.30
2018-01-22T16:28:53.846Z,37.37
2018-01-22T16:31:21.362Z,32.57
2018-01-22T16:33:49.152Z,36.53
2018-01-22T16:36:16.651Z,36.13
2018-01-22T16:38:44.150Z,31.60
2018-01-22T16:41:11.678Z,37.57
2018-01-22T16:43:39.202Z,32.77
2018-01-22T16:46:06.703Z,40.13
2018-01-22T16:48:34.907Z,35.67
2018-01-22T16:51:02.414Z,35.30
2018-01-22T16:53:29.976Z,38.57
2018-01-22T16:55:57.488Z,35.93
2018-01-22T16:58:25.187Z,34.87
2018-01-22T17:00:52.687Z,41.57
2018-01-22T17:03:20.620Z,43.90
2018-01-22T17:05:48.133Z,36.83
2018-01-22T17:08:15.672Z,31.03
2018-01-22T17:10:43.175Z,39.00
2018-01-22T17:13:10.689Z,40.27
2018-01-22T17:15:38.947Z,40.70
2018-01-22T17:18:06.647Z,37.17
2018-01-22T17:20:34.151Z,37.50
2018-01-22T17:23:01.662Z,41.13
2018-01-22T17:25:29.159Z,35.93
2018-01-22T17:27:56.664Z,48.23
2018-01-22T17:30:24.273Z,42.13
2018-01-22T17:32:51.799Z,38.30
2018-01-22T17:35:19.305Z,36.53
2018-01-22T17:37:46.826Z,40.70
2018-01-22T17:40:14.365Z,36.90
2018-01-22T17:42:41.864Z,48.20
2018-01-22T17:45:09.365Z,38.90
2018-01-22T17:47:36.867Z,48.37
2018-01-22T17:50:04.448Z,40.03
2018-01-22T17:52:31.966Z,36.57
2018-01-22T17:54:59.470Z,46.30
2018-01-22T17:57:27.223Z,38.97
2018-01-22T17:59:54.738Z,46.28
2018-01-22T18:02:23.608Z,47.37
2018-01-22T18:04:51.126Z,66.97
2018-01-22T18:07:18.648Z,56.93
2018-01-22T18:09:46.344Z,49.37
2018-01-22T18:12:14.709Z,72.10
2018-01-22T18:14:42.207Z,47.17
2018-01-22T18:17:09.901Z,42.83
2018-01-22T18:19:37.694Z,53.73
2018-01-22T18:22:05.202Z,45.70
2018-01-22T18:24:32.707Z,42.53
2018-01-22T18:27:00.331Z,43.77
2018-01-22T18:29:27.836Z,44.10
2018-01-22T18:31:55.347Z,41.93
2018-01-22T18:34:23.235Z,51.40
2018-01-22T18:36:50.865Z,53.07
2018-01-22T18:39:18.476Z,48.90
2018-01-22T18:41:45.988Z,45.43
2018-01-22T18:44:13.711Z,50.60
2018-01-22T18:46:41.239Z,53.50
2018-01-22T18:49:09.015Z,48.77
2018-01-22T18:51:36.527Z,54.00
2018-01-22T18:54:04.043Z,52.40
2018-01-22T18:56:31.874Z,53.07
2018-01-22T18:59:00.055Z,54.13
2018-01-22T19:01:27.555Z,53.73
2018-01-22T19:03:55.071Z,48.70
2018-01-22T19:06:22.773Z,56.87
2018-01-22T19:08:50.311Z,50.37
2018-01-22T19:11:17.831Z,51.07
2018-01-22T19:13:45.414Z,51.57
2018-01-22T19:16:12.931Z,56.77
2018-01-22T19:18:40.639Z,50.60
2018-01-22T19:21:08.160Z,48.67
2018-01-22T19:23:35.870Z,53.80
2018-01-22T19:26:03.392Z,47.13
2018-01-22T19:28:30.935Z,50.83
2018-01-22T19:30:59.208Z,48.50
2018-01-22T19:33:27.120Z,48.30
2018-01-22T19:35:55.245Z,51.60
2018-01-22T19:38:22.743Z,43.27
2018-01-22T19:40:50.250Z,47.83
2018-01-22T19:43:17.753Z,54.87
2018-01-22T19:45:45.267Z,47.03
2018-01-22T19:48:13.770Z,49.87
2018-01-22T19:50:41.286Z,46.80
2018-01-22T19:53:08.936Z,45.87
2018-01-22T19:55:36.448Z,41.77
2018-01-22T19:58:03.967Z,44.27
2018-01-22T20:00:31.697Z,38.50
2018-01-22T20:02:59.179Z,38.90
2018-01-22T20:05:26.696Z,37.60
2018-01-22T20:07:54.375Z,37.57
2018-01-22T20:10:21.881Z,36.87
2018-01-22T20:12:49.397Z,33.10
2018-01-22T20:15:17.080Z,33.70
2018-01-22T20:17:44.588Z,40.80
2018-01-22T20:20:13.015Z,38.80
2018-01-22T20:22:40.543Z,44.70
2018-01-22T20:25:08.115Z,38.77
2018-01-22T20:27:35.711Z,38.27
2018-01-22T20:30:04.007Z,63.20
2018-01-22T20:32:31.526Z,45.40
2018-01-22T20:34:59.265Z,41.93
2018-01-22T20:37:26.887Z,42.10
2018-01-22T20:39:54.396Z,41.53
2018-01-22T20:42:22.147Z,46.40
2018-01-22T20:44:49.910Z,41.07
2018-01-22T20:47:17.419Z,44.10
2018-01-22T20:49:44.923Z,42.03
2018-01-22T20:52:12.557Z,46.57
2018-01-22T20:54:40.350Z,45.20
2018-01-22T20:57:08.302Z,45.97
2018-01-22T20:59:35.884Z,36.70
2018-01-22T21:02:03.382Z,44.43
2018-01-22T21:04:30.886Z,46.90
2018-01-22T21:06:58.555Z,44.17
2018-01-22T21:09:26.050Z,47.93
2018-01-22T21:11:53.781Z,45.50
2018-01-22T21:14:21.286Z,46.73
2018-01-22T21:16:48.803Z,43.77
2018-01-22T21:19:16.318Z,43.93
2018-01-22T21:21:43.816Z,44.03
2018-01-22T21:24:11.376Z,41.43
2018-01-22T21:26:38.879Z,42.90
2018-01-22T21:29:06.395Z,43.20
2018-01-22T21:31:34.037Z,40.60
2018-01-22T21:34:01.569Z,47.23
2018-01-22T21:36:29.076Z,45.00
2018-01-22T21:38:56.716Z,42.13
2018-01-22T21:41:24.283Z,39.97
2018-01-22T21:43:51.807Z,39.47
2018-01-22T21:46:19.383Z,36.83
2018-01-22T21:48:47.156Z,52.70
2018-01-22T21:51:14.688Z,45.80
2018-01-22T21:53:42.348Z,46.77
2018-01-22T21:56:09.860Z,44.70
2018-01-22T21:58:37.367Z,38.03
2018-01-22T22:01:04.862Z,41.03
2018-01-22T22:03:32.473Z,45.90
2018-01-22T22:05:59.976Z,44.47
2018-01-22T22:08:27.480Z,45.87
2018-01-22T22:10:55.143Z,49.83
2018-01-22T22:13:22.651Z,43.30
2018-01-22T22:15:50.168Z,41.17
2018-01-22T22:18:17.875Z,37.90
2018-01-22T22:20:47.159Z,44.90
2018-01-22T22:23:14.696Z,40.63
2018-01-22T22:25:42.308Z,43.60
2018-01-22T22:28:09.821Z,37.53
2018-01-22T22:30:38.034Z,41.20
2018-01-22T22:33:05.543Z,41.93
2018-01-22T22:35:33.092Z,46.47
2018-01-22T22:38:00.890Z,43.60
2018-01-22T22:40:28.656Z,45.30
2018-01-22T22:42:56.188Z,46.53
2018-01-22T22:45:23.680Z,43.10
2018-01-22T22:47:51.305Z,51.07
2018-01-22T22:50:18.804Z,43.53
2018-01-22T22:52:46.314Z,51.00
2018-01-22T22:55:13.998Z,50.60
2018-01-22T22:57:41.734Z,51.00
2018-01-22T23:00:09.239Z,46.03
2018-01-22T23:02:37.167Z,53.37
2018-01-22T23:05:04.716Z,44.33
2018-01-22T23:07:32.338Z,56.63
2018-01-22T23:09:59.951Z,46.47
2018-01-22T23:12:27.717Z,47.50
2018-01-22T23:14:55.183Z,48.97
2018-01-22T23:17:22.926Z,52.17
2018-01-22T23:19:50.435Z,52.17
2018-01-22T23:22:17.945Z,47.90
2018-01-22T23:24:45.630Z,49.57
2018-01-22T23:27:13.139Z,55.60
2018-01-22T23:29:40.647Z,54.20
2018-01-22T23:32:08.285Z,47.63
2018-01-22T23:34:35.786Z,60.33
2018-01-22T23:37:03.303Z,55.93
2018-01-22T23:39:30.795Z,47.50
2018-01-22T23:41:58.312Z,58.00
2018-01-22T23:44:25.895Z,52.90
2018-01-22T23:46:53.670Z,47.60
2018-01-22T23:49:21.162Z,55.83
2018-01-22T23:51:48.694Z,49.97
2018-01-22T23:54:19.916Z,52.47
2018-01-22T23:56:47.451Z,57.50
2018-01-22T23:59:14.946Z,50.07
